sensor_id;sensor_type;location;lat;lon;timestamp;P1;durP1;ratioP1;P2;durP2;ratioP2
3841;SDS011;1936;47.074;15.336;2023-03-20T00:00:44;25.52;;;14.55;;
3841;SDS011;1936;47.074;15.336;2023-03-20T00:02:48;20.08;;;14.10;;
3841;SDS011;1936;47.074;15.336;2023-03-20T00:04:52;24.80;;;13.57;;
3841;SDS011;1936;47.074;15.336;2023-03-20T00:06:56;26.40;;;15.05;;
3841;SDS011;1936;47.074;15.336;2023-03-20T00:09:00;36.50;;;20.67;;
3841;SDS011;1936;47.074;15.336;2023-03-20T00:11:09;24.73;;;14.90;;
3841;SDS011;1936;47.074;15.336;2023-03-20T00:13:17;15.77;;;11.60;;
3841;SDS011;1936;47.074;15.336;2023-03-20T00:15:26;14.93;;;12.55;;
3841;SDS011;1936;47.074;15.336;2023-03-20T00:17:34;20.15;;;13.52;;
3841;SDS011;1936;47.074;15.336;2023-03-20T00:19:37;30.23;;;16.20;;
3841;SDS011;1936;47.074;15.336;2023-03-20T00:21:41;26.23;;;16.20;;
3841;SDS011;1936;47.074;15.336;2023-03-20T00:23:46;24.75;;;15.15;;
3841;SDS011;1936;47.074;15.336;2023-03-20T00:25:49;23.85;;;15.02;;
3841;SDS011;1936;47.074;15.336;2023-03-20T00:27:54;17.08;;;12.90;;
3841;SDS011;1936;47.074;15.336;2023-03-20T00:29:57;15.25;;;11.95;;
3841;SDS011;1936;47.074;15.336;2023-03-20T00:32:04;16.75;;;12.30;;
3841;SDS011;1936;47.074;15.336;2023-03-20T00:34:10;15.88;;;11.82;;
3841;SDS011;1936;47.074;15.336;2023-03-20T00:36:14;14.90;;;11.02;;
3841;SDS011;1936;47.074;15.336;2023-03-20T00:38:18;17.63;;;11.95;;
3841;SDS011;1936;47.074;15.336;2023-03-20T00:40:22;17.13;;;12.48;;
3841;SDS011;1936;47.074;15.336;2023-03-20T00:42:27;17.02;;;12.75;;
3841;SDS011;1936;47.074;15.336;2023-03-20T00:44:32;16.33;;;11.98;;
3841;SDS011;1936;47.074;15.336;2023-03-20T00:46:37;15.90;;;13.32;;
3841;SDS011;1936;47.074;15.336;2023-03-20T00:48:43;20.83;;;11.55;;
3841;SDS011;1936;47.074;15.336;2023-03-20T00:50:47;17.10;;;12.57;;
3841;SDS011;1936;47.074;15.336;2023-03-20T00:52:51;21.98;;;13.27;;
3841;SDS011;1936;47.074;15.336;2023-03-20T00:54:55;17.45;;;12.88;;
3841;SDS011;1936;47.074;15.336;2023-03-20T00:56:59;15.02;;;11.40;;
3841;SDS011;1936;47.074;15.336;2023-03-20T00:59:03;15.88;;;12.25;;
3841;SDS011;1936;47.074;15.336;2023-03-20T01:01:07;19.13;;;12.55;;
3841;SDS011;1936;47.074;15.336;2023-03-20T01:03:15;18.63;;;12.68;;
3841;SDS011;1936;47.074;15.336;2023-03-20T01:05:21;15.30;;;12.95;;
3841;SDS011;1936;47.074;15.336;2023-03-20T01:07:24;13.45;;;11.73;;
3841;SDS011;1936;47.074;15.336;2023-03-20T01:09:28;13.82;;;11.57;;
3841;SDS011;1936;47.074;15.336;2023-03-20T01:11:35;12.77;;;10.88;;
3841;SDS011;1936;47.074;15.336;2023-03-20T01:13:39;16.10;;;11.68;;
3841;SDS011;1936;47.074;15.336;2023-03-20T01:15:43;25.33;;;11.40;;
3841;SDS011;1936;47.074;15.336;2023-03-20T01:17:48;12.02;;;10.38;;
3841;SDS011;1936;47.074;15.336;2023-03-20T01:19:51;13.05;;;9.90;;
3841;SDS011;1936;47.074;15.336;2023-03-20T01:21:56;12.85;;;10.70;;
3841;SDS011;1936;47.074;15.336;2023-03-20T01:24:00;16.13;;;11.10;;
3841;SDS011;1936;47.074;15.336;2023-03-20T01:26:04;11.10;;;9.88;;
3841;SDS011;1936;47.074;15.336;2023-03-20T01:28:13;12.90;;;10.60;;
3841;SDS011;1936;47.074;15.336;2023-03-20T01:30:18;12.85;;;10.68;;
3841;SDS011;1936;47.074;15.336;2023-03-20T01:32:22;12.63;;;10.15;;
3841;SDS011;1936;47.074;15.336;2023-03-20T01:34:26;15.40;;;10.52;;
3841;SDS011;1936;47.074;15.336;2023-03-20T01:36:30;13.98;;;10.45;;
3841;SDS011;1936;47.074;15.336;2023-03-20T01:38:35;13.43;;;9.38;;
3841;SDS011;1936;47.074;15.336;2023-03-20T01:40:41;16.10;;;10.00;;
3841;SDS011;1936;47.074;15.336;2023-03-20T01:42:45;10.95;;;9.02;;
3841;SDS011;1936;47.074;15.336;2023-03-20T01:44:49;10.70;;;9.60;;
3841;SDS011;1936;47.074;15.336;2023-03-20T01:46:54;15.80;;;10.50;;
3841;SDS011;1936;47.074;15.336;2023-03-20T01:49:07;16.92;;;10.88;;
3841;SDS011;1936;47.074;15.336;2023-03-20T01:51:13;12.43;;;11.13;;
3841;SDS011;1936;47.074;15.336;2023-03-20T01:53:17;14.60;;;10.85;;
3841;SDS011;1936;47.074;15.336;2023-03-20T01:55:23;12.75;;;10.77;;
3841;SDS011;1936;47.074;15.336;2023-03-20T01:57:27;15.68;;;11.07;;
3841;SDS011;1936;47.074;15.336;2023-03-20T01:59:32;14.07;;;10.88;;
3841;SDS011;1936;47.074;15.336;2023-03-20T02:01:37;14.77;;;10.20;;
3841;SDS011;1936;47.074;15.336;2023-03-20T02:03:42;10.77;;;9.50;;
3841;SDS011;1936;47.074;15.336;2023-03-20T02:05:46;13.93;;;10.43;;
3841;SDS011;1936;47.074;15.336;2023-03-20T02:07:54;13.30;;;10.95;;
3841;SDS011;1936;47.074;15.336;2023-03-20T02:09:58;12.60;;;10.80;;
3841;SDS011;1936;47.074;15.336;2023-03-20T02:12:06;11.10;;;9.95;;
3841;SDS011;1936;47.074;15.336;2023-03-20T02:14:10;16.13;;;10.82;;
3841;SDS011;1936;47.074;15.336;2023-03-20T02:16:15;11.82;;;10.45;;
3841;SDS011;1936;47.074;15.336;2023-03-20T02:18:19;14.50;;;9.25;;
3841;SDS011;1936;47.074;15.336;2023-03-20T02:20:30;11.73;;;9.32;;
3841;SDS011;1936;47.074;15.336;2023-03-20T02:22:43;10.13;;;8.95;;
3841;SDS011;1936;47.074;15.336;2023-03-20T02:25:05;11.52;;;9.52;;
3841;SDS011;1936;47.074;15.336;2023-03-20T02:27:18;12.23;;;8.80;;
3841;SDS011;1936;47.074;15.336;2023-03-20T02:29:43;14.88;;;9.90;;
3841;SDS011;1936;47.074;15.336;2023-03-20T02:32:06;11.02;;;9.23;;
3841;SDS011;1936;47.074;15.336;2023-03-20T02:34:19;11.27;;;10.02;;
3841;SDS011;1936;47.074;15.336;2023-03-20T02:41:14;10.73;;;9.57;;
3841;SDS011;1936;47.074;15.336;2023-03-20T02:43:24;11.90;;;10.20;;
3841;SDS011;1936;47.074;15.336;2023-03-20T02:45:32;13.60;;;10.70;;
3841;SDS011;1936;47.074;15.336;2023-03-20T02:47:39;10.68;;;9.68;;
3841;SDS011;1936;47.074;15.336;2023-03-20T02:49:48;11.60;;;9.95;;
3841;SDS011;1936;47.074;15.336;2023-03-20T02:51:53;11.10;;;8.75;;
3841;SDS011;1936;47.074;15.336;2023-03-20T02:54:00;12.27;;;10.02;;
3841;SDS011;1936;47.074;15.336;2023-03-20T02:56:10;10.48;;;9.23;;
3841;SDS011;1936;47.074;15.336;2023-03-20T02:58:18;10.95;;;9.10;;
3841;SDS011;1936;47.074;15.336;2023-03-20T03:00:25;9.82;;;8.75;;
3841;SDS011;1936;47.074;15.336;2023-03-20T03:02:31;10.40;;;9.30;;
3841;SDS011;1936;47.074;15.336;2023-03-20T03:04:37;11.82;;;10.20;;
3841;SDS011;1936;47.074;15.336;2023-03-20T03:06:41;10.90;;;9.80;;
3841;SDS011;1936;47.074;15.336;2023-03-20T03:08:47;10.68;;;9.13;;
3841;SDS011;1936;47.074;15.336;2023-03-20T03:10:52;11.02;;;9.13;;
3841;SDS011;1936;47.074;15.336;2023-03-20T03:12:57;11.00;;;9.60;;
3841;SDS011;1936;47.074;15.336;2023-03-20T03:15:03;11.38;;;9.85;;
3841;SDS011;1936;47.074;15.336;2023-03-20T03:17:09;11.90;;;9.50;;
3841;SDS011;1936;47.074;15.336;2023-03-20T03:19:14;13.00;;;10.25;;
3841;SDS011;1936;47.074;15.336;2023-03-20T03:21:19;11.50;;;10.07;;
3841;SDS011;1936;47.074;15.336;2023-03-20T03:23:25;10.15;;;9.10;;
3841;SDS011;1936;47.074;15.336;2023-03-20T03:25:30;12.40;;;9.00;;
3841;SDS011;1936;47.074;15.336;2023-03-20T03:27:36;11.27;;;9.75;;
3841;SDS011;1936;47.074;15.336;2023-03-20T03:29:40;12.52;;;10.48;;
3841;SDS011;1936;47.074;15.336;2023-03-20T03:31:45;12.20;;;10.23;;
3841;SDS011;1936;47.074;15.336;2023-03-20T03:33:49;11.18;;;8.95;;
3841;SDS011;1936;47.074;15.336;2023-03-20T03:35:54;11.25;;;9.70;;
3841;SDS011;1936;47.074;15.336;2023-03-20T03:38:00;14.15;;;10.10;;
3841;SDS011;1936;47.074;15.336;2023-03-20T03:40:06;13.90;;;9.63;;
3841;SDS011;1936;47.074;15.336;2023-03-20T03:42:15;11.20;;;9.98;;
3841;SDS011;1936;47.074;15.336;2023-03-20T03:44:25;11.20;;;8.93;;
3841;SDS011;1936;47.074;15.336;2023-03-20T03:46:31;10.90;;;9.80;;
3841;SDS011;1936;47.074;15.336;2023-03-20T03:48:39;11.77;;;9.90;;
3841;SDS011;1936;47.074;15.336;2023-03-20T03:50:47;11.52;;;8.93;;
3841;SDS011;1936;47.074;15.336;2023-03-20T03:52:51;11.88;;;9.73;;
3841;SDS011;1936;47.074;15.336;2023-03-20T03:54:58;9.73;;;8.82;;
3841;SDS011;1936;47.074;15.336;2023-03-20T03:57:03;11.45;;;9.10;;
3841;SDS011;1936;47.074;15.336;2023-03-20T03:59:09;11.25;;;9.80;;
3841;SDS011;1936;47.074;15.336;2023-03-20T04:01:13;11.85;;;9.43;;
3841;SDS011;1936;47.074;15.336;2023-03-20T04:03:20;11.32;;;9.40;;
3841;SDS011;1936;47.074;15.336;2023-03-20T04:05:26;9.70;;;8.73;;
3841;SDS011;1936;47.074;15.336;2023-03-20T04:07:32;11.85;;;9.70;;
3841;SDS011;1936;47.074;15.336;2023-03-20T04:09:35;11.63;;;9.75;;
3841;SDS011;1936;47.074;15.336;2023-03-20T04:11:39;11.27;;;9.48;;
3841;SDS011;1936;47.074;15.336;2023-03-20T04:13:42;9.80;;;8.80;;
3841;SDS011;1936;47.074;15.336;2023-03-20T04:15:47;10.52;;;9.23;;
3841;SDS011;1936;47.074;15.336;2023-03-20T04:17:50;11.02;;;8.90;;
3841;SDS011;1936;47.074;15.336;2023-03-20T04:19:54;12.57;;;9.30;;
3841;SDS011;1936;47.074;15.336;2023-03-20T04:21:59;11.65;;;10.00;;
3841;SDS011;1936;47.074;15.336;2023-03-20T04:24:03;14.13;;;10.90;;
3841;SDS011;1936;47.074;15.336;2023-03-20T04:26:07;10.77;;;9.68;;
3841;SDS011;1936;47.074;15.336;2023-03-20T04:28:10;11.88;;;10.68;;
3841;SDS011;1936;47.074;15.336;2023-03-20T04:30:16;11.30;;;9.23;;
3841;SDS011;1936;47.074;15.336;2023-03-20T04:32:20;14.73;;;9.23;;
3841;SDS011;1936;47.074;15.336;2023-03-20T04:34:24;12.73;;;10.02;;
3841;SDS011;1936;47.074;15.336;2023-03-20T04:36:27;13.80;;;9.95;;
3841;SDS011;1936;47.074;15.336;2023-03-20T04:38:33;14.75;;;9.38;;
3841;SDS011;1936;47.074;15.336;2023-03-20T04:40:37;13.25;;;10.57;;
3841;SDS011;1936;47.074;15.336;2023-03-20T04:42:40;11.23;;;9.52;;
3841;SDS011;1936;47.074;15.336;2023-03-20T04:44:44;13.98;;;10.82;;
3841;SDS011;1936;47.074;15.336;2023-03-20T04:46:48;12.32;;;9.30;;
3841;SDS011;1936;47.074;15.336;2023-03-20T04:48:51;13.63;;;11.02;;
3841;SDS011;1936;47.074;15.336;2023-03-20T04:50:55;10.30;;;9.23;;
3841;SDS011;1936;47.074;15.336;2023-03-20T04:52:59;10.82;;;9.73;;
3841;SDS011;1936;47.074;15.336;2023-03-20T04:55:05;10.38;;;9.20;;
3841;SDS011;1936;47.074;15.336;2023-03-20T04:57:09;15.38;;;9.60;;
3841;SDS011;1936;47.074;15.336;2023-03-20T04:59:14;11.80;;;9.63;;
3841;SDS011;1936;47.074;15.336;2023-03-20T05:01:17;13.10;;;9.35;;
3841;SDS011;1936;47.074;15.336;2023-03-20T05:03:24;12.70;;;9.65;;
3841;SDS011;1936;47.074;15.336;2023-03-20T05:05:28;11.68;;;9.95;;
3841;SDS011;1936;47.074;15.336;2023-03-20T05:07:33;13.60;;;10.30;;
3841;SDS011;1936;47.074;15.336;2023-03-20T05:09:37;17.42;;;11.63;;
3841;SDS011;1936;47.074;15.336;2023-03-20T05:11:42;13.68;;;11.10;;
3841;SDS011;1936;47.074;15.336;2023-03-20T05:13:45;46.40;;;11.88;;
3841;SDS011;1936;47.074;15.336;2023-03-20T05:15:49;18.20;;;11.23;;
3841;SDS011;1936;47.074;15.336;2023-03-20T05:17:54;12.10;;;10.38;;
3841;SDS011;1936;47.074;15.336;2023-03-20T05:19:57;12.48;;;10.20;;
3841;SDS011;1936;47.074;15.336;2023-03-20T05:22:01;10.70;;;9.60;;
3841;SDS011;1936;47.074;15.336;2023-03-20T05:24:05;11.68;;;10.48;;
3841;SDS011;1936;47.074;15.336;2023-03-20T05:26:09;13.18;;;10.23;;
3841;SDS011;1936;47.074;15.336;2023-03-20T05:28:15;21.63;;;11.55;;
3841;SDS011;1936;47.074;15.336;2023-03-20T05:30:18;16.08;;;11.57;;
3841;SDS011;1936;47.074;15.336;2023-03-20T05:32:22;13.32;;;10.40;;
3841;SDS011;1936;47.074;15.336;2023-03-20T05:34:26;16.63;;;9.38;;
3841;SDS011;1936;47.074;15.336;2023-03-20T05:36:30;11.82;;;10.52;;
3841;SDS011;1936;47.074;15.336;2023-03-20T05:38:35;11.32;;;10.23;;
3841;SDS011;1936;47.074;15.336;2023-03-20T05:40:39;10.27;;;9.20;;
3841;SDS011;1936;47.074;15.336;2023-03-20T05:42:43;16.60;;;10.40;;
3841;SDS011;1936;47.074;15.336;2023-03-20T05:44:48;13.55;;;9.60;;
3841;SDS011;1936;47.074;15.336;2023-03-20T05:46:52;19.48;;;10.95;;
3841;SDS011;1936;47.074;15.336;2023-03-20T05:48:55;38.72;;;11.85;;
3841;SDS011;1936;47.074;15.336;2023-03-20T05:50:59;42.03;;;13.48;;
3841;SDS011;1936;47.074;15.336;2023-03-20T05:53:03;17.35;;;10.75;;
3841;SDS011;1936;47.074;15.336;2023-03-20T05:55:07;20.73;;;11.63;;
3841;SDS011;1936;47.074;15.336;2023-03-20T05:57:14;26.98;;;9.82;;
3841;SDS011;1936;47.074;15.336;2023-03-20T05:59:18;19.23;;;9.10;;
3841;SDS011;1936;47.074;15.336;2023-03-20T06:01:25;27.95;;;11.18;;
3841;SDS011;1936;47.074;15.336;2023-03-20T06:03:29;20.30;;;10.98;;
3841;SDS011;1936;47.074;15.336;2023-03-20T06:05:34;27.15;;;12.23;;
3841;SDS011;1936;47.074;15.336;2023-03-20T06:07:38;13.85;;;10.10;;
3841;SDS011;1936;47.074;15.336;2023-03-20T06:09:41;15.05;;;10.48;;
3841;SDS011;1936;47.074;15.336;2023-03-20T06:11:45;13.93;;;9.93;;
3841;SDS011;1936;47.074;15.336;2023-03-20T06:13:49;15.90;;;10.00;;
3841;SDS011;1936;47.074;15.336;2023-03-20T06:15:55;23.20;;;11.10;;
3841;SDS011;1936;47.074;15.336;2023-03-20T06:18:00;12.90;;;10.60;;
3841;SDS011;1936;47.074;15.336;2023-03-20T06:20:04;27.02;;;12.77;;
3841;SDS011;1936;47.074;15.336;2023-03-20T06:22:08;11.10;;;10.00;;
3841;SDS011;1936;47.074;15.336;2023-03-20T06:24:12;20.35;;;12.07;;
3841;SDS011;1936;47.074;15.336;2023-03-20T06:26:16;14.63;;;11.13;;
3841;SDS011;1936;47.074;15.336;2023-03-20T06:28:19;14.00;;;10.60;;
3841;SDS011;1936;47.074;15.336;2023-03-20T06:30:23;23.90;;;11.45;;
3841;SDS011;1936;47.074;15.336;2023-03-20T06:32:27;25.83;;;10.50;;
3841;SDS011;1936;47.074;15.336;2023-03-20T06:34:33;11.00;;;9.20;;
3841;SDS011;1936;47.074;15.336;2023-03-20T06:36:37;16.90;;;10.98;;
3841;SDS011;1936;47.074;15.336;2023-03-20T06:38:40;14.80;;;10.55;;
3841;SDS011;1936;47.074;15.336;2023-03-20T06:40:44;12.35;;;9.75;;
3841;SDS011;1936;47.074;15.336;2023-03-20T06:42:47;15.30;;;10.10;;
3841;SDS011;1936;47.074;15.336;2023-03-20T06:44:51;11.10;;;8.73;;
3841;SDS011;1936;47.074;15.336;2023-03-20T06:46:55;14.23;;;9.90;;
3841;SDS011;1936;47.074;15.336;2023-03-20T06:48:59;15.07;;;10.17;;
3841;SDS011;1936;47.074;15.336;2023-03-20T06:51:04;11.23;;;8.97;;
3841;SDS011;1936;47.074;15.336;2023-03-20T06:53:08;15.90;;;9.70;;
3841;SDS011;1936;47.074;15.336;2023-03-20T06:55:12;24.00;;;8.90;;
3841;SDS011;1936;47.074;15.336;2023-03-20T06:57:16;18.50;;;10.00;;
3841;SDS011;1936;47.074;15.336;2023-03-20T06:59:19;13.07;;;10.23;;
3841;SDS011;1936;47.074;15.336;2023-03-20T07:01:24;11.30;;;8.50;;
3841;SDS011;1936;47.074;15.336;2023-03-20T07:03:28;12.20;;;8.47;;
3841;SDS011;1936;47.074;15.336;2023-03-20T07:05:32;17.77;;;8.10;;
3841;SDS011;1936;47.074;15.336;2023-03-20T07:07:38;8.40;;;7.57;;
3841;SDS011;1936;47.074;15.336;2023-03-20T07:09:42;9.53;;;8.03;;
3841;SDS011;1936;47.074;15.336;2023-03-20T07:11:45;9.33;;;8.30;;
3841;SDS011;1936;47.074;15.336;2023-03-20T07:13:49;12.77;;;7.53;;
3841;SDS011;1936;47.074;15.336;2023-03-20T07:15:53;13.20;;;8.00;;
3841;SDS011;1936;47.074;15.336;2023-03-20T07:18:05;10.60;;;8.13;;
3841;SDS011;1936;47.074;15.336;2023-03-20T07:20:09;10.73;;;7.63;;
3841;SDS011;1936;47.074;15.336;2023-03-20T07:22:15;14.50;;;8.20;;
3841;SDS011;1936;47.074;15.336;2023-03-20T07:24:21;15.23;;;9.60;;
3841;SDS011;1936;47.074;15.336;2023-03-20T07:26:25;9.00;;;8.10;;
3841;SDS011;1936;47.074;15.336;2023-03-20T07:28:29;9.73;;;8.67;;
3841;SDS011;1936;47.074;15.336;2023-03-20T07:30:33;13.63;;;8.20;;
3841;SDS011;1936;47.074;15.336;2023-03-20T07:32:36;12.47;;;8.33;;
3841;SDS011;1936;47.074;15.336;2023-03-20T07:34:41;10.87;;;7.73;;
3841;SDS011;1936;47.074;15.336;2023-03-20T07:36:45;8.90;;;6.70;;
3841;SDS011;1936;47.074;15.336;2023-03-20T07:38:49;8.10;;;7.30;;
3841;SDS011;1936;47.074;15.336;2023-03-20T07:40:54;8.87;;;7.47;;
3841;SDS011;1936;47.074;15.336;2023-03-20T07:42:58;10.80;;;7.53;;
3841;SDS011;1936;47.074;15.336;2023-03-20T07:45:02;9.43;;;6.17;;
3841;SDS011;1936;47.074;15.336;2023-03-20T07:47:08;6.80;;;6.10;;
3841;SDS011;1936;47.074;15.336;2023-03-20T07:49:12;8.80;;;7.37;;
3841;SDS011;1936;47.074;15.336;2023-03-20T07:51:18;8.07;;;6.70;;
3841;SDS011;1936;47.074;15.336;2023-03-20T07:53:22;13.30;;;7.43;;
3841;SDS011;1936;47.074;15.336;2023-03-20T07:55:26;7.50;;;6.80;;
3841;SDS011;1936;47.074;15.336;2023-03-20T07:57:31;10.40;;;7.07;;
3841;SDS011;1936;47.074;15.336;2023-03-20T07:59:35;14.00;;;7.50;;
3841;SDS011;1936;47.074;15.336;2023-03-20T08:01:39;11.40;;;7.10;;
3841;SDS011;1936;47.074;15.336;2023-03-20T08:03:42;9.87;;;7.63;;
3841;SDS011;1936;47.074;15.336;2023-03-20T08:05:46;15.53;;;9.67;;
3841;SDS011;1936;47.074;15.336;2023-03-20T08:07:50;8.90;;;6.77;;
3841;SDS011;1936;47.074;15.336;2023-03-20T08:09:54;13.20;;;9.60;;
3841;SDS011;1936;47.074;15.336;2023-03-20T08:11:58;9.83;;;7.30;;
3841;SDS011;1936;47.074;15.336;2023-03-20T08:14:03;10.70;;;7.10;;
3841;SDS011;1936;47.074;15.336;2023-03-20T08:16:08;7.30;;;6.20;;
3841;SDS011;1936;47.074;15.336;2023-03-20T08:18:12;12.33;;;7.47;;
3841;SDS011;1936;47.074;15.336;2023-03-20T08:20:15;10.33;;;7.43;;
3841;SDS011;1936;47.074;15.336;2023-03-20T08:22:20;9.90;;;6.87;;
3841;SDS011;1936;47.074;15.336;2023-03-20T08:24:24;9.97;;;6.37;;
3841;SDS011;1936;47.074;15.336;2023-03-20T08:26:27;10.90;;;7.23;;
3841;SDS011;1936;47.074;15.336;2023-03-20T08:28:31;8.53;;;5.70;;
3841;SDS011;1936;47.074;15.336;2023-03-20T08:30:51;7.43;;;4.80;;
3841;SDS011;1936;47.074;15.336;2023-03-20T08:32:54;7.80;;;4.40;;
3841;SDS011;1936;47.074;15.336;2023-03-20T08:34:59;8.57;;;5.53;;
3841;SDS011;1936;47.074;15.336;2023-03-20T08:37:03;10.17;;;5.73;;
3841;SDS011;1936;47.074;15.336;2023-03-20T08:39:08;6.07;;;4.50;;
3841;SDS011;1936;47.074;15.336;2023-03-20T08:41:12;10.90;;;6.23;;
3841;SDS011;1936;47.074;15.336;2023-03-20T08:43:15;8.77;;;6.00;;
3841;SDS011;1936;47.074;15.336;2023-03-20T08:45:19;6.30;;;4.43;;
3841;SDS011;1936;47.074;15.336;2023-03-20T08:47:27;15.87;;;8.97;;
3841;SDS011;1936;47.074;15.336;2023-03-20T08:49:31;8.73;;;4.77;;
3841;SDS011;1936;47.074;15.336;2023-03-20T08:51:35;5.20;;;4.70;;
3841;SDS011;1936;47.074;15.336;2023-03-20T08:53:39;8.50;;;4.20;;
3841;SDS011;1936;47.074;15.336;2023-03-20T08:55:46;5.40;;;4.90;;
3841;SDS011;1936;47.074;15.336;2023-03-20T08:57:49;5.77;;;4.23;;
3841;SDS011;1936;47.074;15.336;2023-03-20T08:59:54;7.67;;;5.83;;
3841;SDS011;1936;47.074;15.336;2023-03-20T09:01:58;11.03;;;5.73;;
3841;SDS011;1936;47.074;15.336;2023-03-20T09:04:03;6.60;;;5.40;;
3841;SDS011;1936;47.074;15.336;2023-03-20T09:06:07;6.10;;;4.77;;
3841;SDS011;1936;47.074;15.336;2023-03-20T09:08:11;6.83;;;5.37;;
3841;SDS011;1936;47.074;15.336;2023-03-20T09:10:15;7.00;;;5.20;;
3841;SDS011;1936;47.074;15.336;2023-03-20T09:12:18;6.90;;;4.57;;
3841;SDS011;1936;47.074;15.336;2023-03-20T09:14:22;8.50;;;5.03;;
3841;SDS011;1936;47.074;15.336;2023-03-20T09:16:26;7.20;;;5.77;;
3841;SDS011;1936;47.074;15.336;2023-03-20T09:18:30;6.53;;;4.87;;
3841;SDS011;1936;47.074;15.336;2023-03-20T09:20:35;10.07;;;4.20;;
3841;SDS011;1936;47.074;15.336;2023-03-20T09:22:39;4.30;;;3.90;;
3841;SDS011;1936;47.074;15.336;2023-03-20T09:24:44;9.60;;;4.63;;
3841;SDS011;1936;47.074;15.336;2023-03-20T09:26:48;4.30;;;3.80;;
3841;SDS011;1936;47.074;15.336;2023-03-20T09:28:52;4.50;;;4.10;;
3841;SDS011;1936;47.074;15.336;2023-03-20T09:30:56;4.37;;;3.97;;
3841;SDS011;1936;47.074;15.336;2023-03-20T09:33:00;4.03;;;3.60;;
3841;SDS011;1936;47.074;15.336;2023-03-20T09:35:04;4.80;;;3.80;;
3841;SDS011;1936;47.074;15.336;2023-03-20T09:37:09;5.73;;;4.50;;
3841;SDS011;1936;47.074;15.336;2023-03-20T09:39:13;4.57;;;4.17;;
3841;SDS011;1936;47.074;15.336;2023-03-20T09:41:18;5.03;;;4.10;;
3841;SDS011;1936;47.074;15.336;2023-03-20T09:43:26;4.53;;;4.10;;
3841;SDS011;1936;47.074;15.336;2023-03-20T09:45:38;5.67;;;4.77;;
3841;SDS011;1936;47.074;15.336;2023-03-20T09:47:45;5.87;;;5.33;;
3841;SDS011;1936;47.074;15.336;2023-03-20T09:49:57;4.77;;;4.37;;
3841;SDS011;1936;47.074;15.336;2023-03-20T09:52:06;6.43;;;5.83;;
3841;SDS011;1936;47.074;15.336;2023-03-20T09:54:16;9.37;;;4.63;;
3841;SDS011;1936;47.074;15.336;2023-03-20T09:56:23;6.20;;;4.40;;
3841;SDS011;1936;47.074;15.336;2023-03-20T09:58:29;4.20;;;3.80;;
3841;SDS011;1936;47.074;15.336;2023-03-20T10:00:34;8.17;;;5.30;;
3841;SDS011;1936;47.074;15.336;2023-03-20T10:02:39;5.83;;;4.83;;
3841;SDS011;1936;47.074;15.336;2023-03-20T10:04:46;4.23;;;3.83;;
3841;SDS011;1936;47.074;15.336;2023-03-20T10:06:52;4.57;;;3.70;;
3841;SDS011;1936;47.074;15.336;2023-03-20T10:08:55;7.33;;;3.33;;
3841;SDS011;1936;47.074;15.336;2023-03-20T10:11:03;4.33;;;3.33;;
3841;SDS011;1936;47.074;15.336;2023-03-20T10:13:13;3.40;;;3.10;;
3841;SDS011;1936;47.074;15.336;2023-03-20T10:15:21;5.33;;;3.47;;
3841;SDS011;1936;47.074;15.336;2023-03-20T10:17:30;3.70;;;3.30;;
3841;SDS011;1936;47.074;15.336;2023-03-20T10:19:41;4.00;;;3.47;;
3841;SDS011;1936;47.074;15.336;2023-03-20T10:21:46;4.97;;;3.77;;
3841;SDS011;1936;47.074;15.336;2023-03-20T10:23:52;5.80;;;3.83;;
3841;SDS011;1936;47.074;15.336;2023-03-20T10:25:59;3.40;;;2.70;;
3841;SDS011;1936;47.074;15.336;2023-03-20T10:28:05;13.00;;;4.20;;
3841;SDS011;1936;47.074;15.336;2023-03-20T10:30:19;3.70;;;3.10;;
3841;SDS011;1936;47.074;15.336;2023-03-20T10:32:26;4.17;;;2.77;;
3841;SDS011;1936;47.074;15.336;2023-03-20T10:34:37;2.90;;;2.70;;
3841;SDS011;1936;47.074;15.336;2023-03-20T10:36:46;6.77;;;3.63;;
3841;SDS011;1936;47.074;15.336;2023-03-20T10:38:53;6.70;;;4.37;;
3841;SDS011;1936;47.074;15.336;2023-03-20T10:41:00;4.47;;;3.67;;
3841;SDS011;1936;47.074;15.336;2023-03-20T10:43:08;5.00;;;3.50;;
3841;SDS011;1936;47.074;15.336;2023-03-20T10:45:17;11.60;;;3.93;;
3841;SDS011;1936;47.074;15.336;2023-03-20T10:47:23;4.20;;;3.70;;
3841;SDS011;1936;47.074;15.336;2023-03-20T10:49:30;5.60;;;3.93;;
3841;SDS011;1936;47.074;15.336;2023-03-20T10:51:38;6.10;;;3.00;;
3841;SDS011;1936;47.074;15.336;2023-03-20T10:53:44;5.30;;;3.83;;
3841;SDS011;1936;47.074;15.336;2023-03-20T10:55:49;4.40;;;3.27;;
3841;SDS011;1936;47.074;15.336;2023-03-20T10:57:54;6.17;;;4.13;;
3841;SDS011;1936;47.074;15.336;2023-03-20T11:00:02;7.43;;;5.40;;
3841;SDS011;1936;47.074;15.336;2023-03-20T11:02:12;6.23;;;5.73;;
3841;SDS011;1936;47.074;15.336;2023-03-20T11:04:16;6.13;;;5.00;;
3841;SDS011;1936;47.074;15.336;2023-03-20T11:06:21;7.93;;;6.20;;
3841;SDS011;1936;47.074;15.336;2023-03-20T11:08:29;8.63;;;6.57;;
3841;SDS011;1936;47.074;15.336;2023-03-20T11:10:35;6.57;;;5.90;;
3841;SDS011;1936;47.074;15.336;2023-03-20T11:12:39;5.30;;;4.80;;
3841;SDS011;1936;47.074;15.336;2023-03-20T11:14:44;8.57;;;6.37;;
3841;SDS011;1936;47.074;15.336;2023-03-20T11:16:49;9.17;;;7.20;;
3841;SDS011;1936;47.074;15.336;2023-03-20T11:18:53;7.00;;;6.30;;
3841;SDS011;1936;47.074;15.336;2023-03-20T11:20:57;7.30;;;6.60;;
3841;SDS011;1936;47.074;15.336;2023-03-20T11:23:01;8.50;;;6.33;;
3841;SDS011;1936;47.074;15.336;2023-03-20T11:25:06;7.27;;;6.57;;
3841;SDS011;1936;47.074;15.336;2023-03-20T11:27:11;9.77;;;7.67;;
3841;SDS011;1936;47.074;15.336;2023-03-20T11:29:16;7.93;;;7.13;;
3841;SDS011;1936;47.074;15.336;2023-03-20T11:31:24;10.50;;;8.17;;
3841;SDS011;1936;47.074;15.336;2023-03-20T11:33:31;7.40;;;6.70;;
3841;SDS011;1936;47.074;15.336;2023-03-20T11:35:38;8.07;;;5.87;;
3841;SDS011;1936;47.074;15.336;2023-03-20T11:37:49;8.63;;;7.77;;
3841;SDS011;1936;47.074;15.336;2023-03-20T11:39:55;8.73;;;7.70;;
3841;SDS011;1936;47.074;15.336;2023-03-20T11:42:00;14.03;;;7.40;;
3841;SDS011;1936;47.074;15.336;2023-03-20T11:44:04;9.17;;;5.80;;
3841;SDS011;1936;47.074;15.336;2023-03-20T11:46:23;7.70;;;7.00;;
3841;SDS011;1936;47.074;15.336;2023-03-20T11:48:34;8.60;;;6.67;;
3841;SDS011;1936;47.074;15.336;2023-03-20T11:50:41;9.43;;;7.10;;
3841;SDS011;1936;47.074;15.336;2023-03-20T11:52:45;8.63;;;7.47;;
3841;SDS011;1936;47.074;15.336;2023-03-20T11:54:50;11.03;;;7.53;;
3841;SDS011;1936;47.074;15.336;2023-03-20T11:56:54;8.83;;;7.67;;
3841;SDS011;1936;47.074;15.336;2023-03-20T11:59:00;9.17;;;7.70;;
3841;SDS011;1936;47.074;15.336;2023-03-20T12:01:06;9.20;;;8.23;;
3841;SDS011;1936;47.074;15.336;2023-03-20T12:05:35;8.13;;;7.00;;
3841;SDS011;1936;47.074;15.336;2023-03-20T12:07:40;10.30;;;8.30;;
3841;SDS011;1936;47.074;15.336;2023-03-20T12:09:45;9.90;;;6.97;;
3841;SDS011;1936;47.074;15.336;2023-03-20T12:11:51;7.27;;;6.53;;
3841;SDS011;1936;47.074;15.336;2023-03-20T12:13:56;13.20;;;7.53;;
3841;SDS011;1936;47.074;15.336;2023-03-20T12:16:03;7.10;;;6.40;;
3841;SDS011;1936;47.074;15.336;2023-03-20T12:18:07;7.53;;;6.73;;
3841;SDS011;1936;47.074;15.336;2023-03-20T12:20:18;8.23;;;5.90;;
3841;SDS011;1936;47.074;15.336;2023-03-20T12:22:27;9.07;;;6.17;;
3841;SDS011;1936;47.074;15.336;2023-03-20T12:24:32;8.17;;;6.50;;
3841;SDS011;1936;47.074;15.336;2023-03-20T12:26:41;6.90;;;6.30;;
3841;SDS011;1936;47.074;15.336;2023-03-20T12:28:46;6.10;;;5.60;;
3841;SDS011;1936;47.074;15.336;2023-03-20T12:31:08;6.80;;;5.50;;
3841;SDS011;1936;47.074;15.336;2023-03-20T12:33:17;11.00;;;6.87;;
3841;SDS011;1936;47.074;15.336;2023-03-20T12:35:28;6.60;;;5.93;;
3841;SDS011;1936;47.074;15.336;2023-03-20T12:37:33;7.70;;;5.93;;
3841;SDS011;1936;47.074;15.336;2023-03-20T12:39:38;10.90;;;7.33;;
3841;SDS011;1936;47.074;15.336;2023-03-20T12:41:48;6.57;;;5.47;;
3841;SDS011;1936;47.074;15.336;2023-03-20T12:46:22;7.03;;;5.53;;